createdAt,value
2016-06-16T00:00:08.084Z,0
2016-06-16T00:01:08.057Z,0
2016-06-16T00:02:08.028Z,0
2016-06-16T00:03:08.000Z,0
2016-06-16T00:04:08.018Z,0
2016-06-16T00:05:08.005Z,0
2016-06-16T00:06:07.822Z,0
2016-06-16T00:07:07.981Z,0
2016-06-16T00:08:07.937Z,0
2016-06-16T00:09:07.987Z,0
2016-06-16T00:10:07.927Z,0
2016-06-16T00:11:07.790Z,0
2016-06-16T00:12:07.902Z,0
2016-06-16T00:13:07.891Z,0
2016-06-16T00:14:07.877Z,0
2016-06-16T00:15:07.880Z,0
2016-06-16T00:16:07.821Z,0
2016-06-16T00:17:07.824Z,0
2016-06-16T00:18:07.826Z,0
2016-06-16T00:19:07.893Z,0
2016-06-16T00:20:07.818Z,0
2016-06-16T00:21:07.805Z,0
2016-06-16T00:22:07.777Z,0
2016-06-16T00:23:07.749Z,0
2016-06-16T00:24:07.767Z,0
2016-06-16T00:25:07.817Z,0
2016-06-16T00:26:08.539Z,0
2016-06-16T00:27:07.729Z,0
2016-06-16T00:28:07.701Z,0
2016-06-16T00:29:07.704Z,0
2016-06-16T00:30:07.630Z,0
2016-06-16T00:31:07.649Z,0
2016-06-16T00:32:07.605Z,0
2016-06-16T00:33:07.622Z,0
2016-06-16T00:34:07.611Z,0
2016-06-16T00:35:07.598Z,0
2016-06-16T00:36:07.570Z,0
2016-06-16T00:37:07.620Z,0
2016-06-16T00:38:07.373Z,0
2016-06-16T00:39:07.563Z,0
2016-06-16T00:40:07.348Z,0
2016-06-16T00:41:07.820Z,0
2016-06-16T00:42:07.494Z,0
2016-06-16T00:43:07.482Z,0
2016-06-16T00:44:07.470Z,0
2016-06-16T00:45:07.457Z,0
2016-06-16T00:46:07.412Z,0
2016-06-16T00:47:07.432Z,0
2016-06-16T00:48:07.404Z,0
2016-06-16T00:49:07.391Z,0
2016-06-16T00:50:07.379Z,0
2016-06-16T00:51:07.397Z,0
2016-06-16T00:52:07.338Z,0
2016-06-16T00:53:07.341Z,0
2016-06-16T00:54:07.328Z,0
2016-06-16T00:55:07.363Z,0
2016-06-16T00:56:07.584Z,0
2016-06-16T00:57:07.338Z,0
2016-06-16T00:58:07.310Z,0
2016-06-16T00:59:07.250Z,0
2016-06-16T01:00:07.205Z,0
2016-06-16T01:01:07.225Z,0
2016-06-16T01:02:07.212Z,0
2016-06-16T01:03:07.200Z,0
2016-06-16T01:04:07.172Z,0
2016-06-16T01:05:07.175Z,0
2016-06-16T01:06:07.162Z,0
2016-06-16T01:07:07.134Z,0
2016-06-16T01:08:07.106Z,0
2016-06-16T01:09:07.124Z,0
2016-06-16T01:10:07.003Z,0
2016-06-16T01:11:06.912Z,0
2016-06-16T01:12:07.134Z,0
2016-06-16T01:13:07.074Z,0
2016-06-16T01:14:07.171Z,0
2016-06-16T01:15:06.674Z,0
2016-06-16T01:16:06.896Z,0
2016-06-16T01:17:06.883Z,0
2016-06-16T01:18:06.980Z,0
2016-06-16T01:19:06.968Z,0
2016-06-16T01:20:06.956Z,0
2016-06-16T01:21:06.942Z,0
2016-06-16T01:22:06.914Z,0
2016-06-16T01:23:06.917Z,0
2016-06-16T01:24:06.889Z,0
2016-06-16T01:25:06.877Z,0
2016-06-16T01:26:06.833Z,0
2016-06-16T01:27:06.868Z,0
2016-06-16T01:28:06.698Z,0
2016-06-16T01:29:06.827Z,0
2016-06-16T01:30:06.658Z,0
2016-06-16T01:31:06.801Z,0
2016-06-16T01:32:06.789Z,0
2016-06-16T01:33:06.776Z,0
2016-06-16T01:34:06.732Z,0
2016-06-16T01:35:06.735Z,0
2016-06-16T01:36:06.738Z,0
2016-06-16T01:37:06.726Z,0
2016-06-16T01:38:06.698Z,0
2016-06-16T01:39:06.685Z,0
2016-06-16T01:40:06.688Z,0
2016-06-16T01:41:06.379Z,0
2016-06-16T01:42:06.648Z,0
2016-06-16T01:43:06.495Z,0
2016-06-16T01:44:06.623Z,0
2016-06-16T01:45:06.454Z,0
2016-06-16T01:46:06.660Z,0
2016-06-16T01:47:06.554Z,0
2016-06-16T01:48:06.557Z,0
2016-06-16T01:49:06.561Z,0
2016-06-16T01:50:06.594Z,0
2016-06-16T01:51:06.519Z,0
2016-06-16T01:52:06.507Z,0
2016-06-16T01:53:06.494Z,0
2016-06-16T01:54:06.528Z,0
2016-06-16T01:55:06.437Z,0
2016-06-16T01:56:06.832Z,0
2016-06-16T01:57:06.428Z,0
2016-06-16T01:58:06.494Z,0
2016-06-16T01:59:06.403Z,0
2016-06-16T02:00:06.453Z,0
2016-06-16T02:01:06.206Z,0
2016-06-16T02:02:06.366Z,0
2016-06-16T02:03:06.353Z,0
2016-06-16T02:04:06.247Z,0
2016-06-16T02:05:06.327Z,0
2016-06-16T02:06:06.316Z,0
2016-06-16T02:07:06.286Z,0
2016-06-16T02:08:06.306Z,0
2016-06-16T02:09:06.090Z,0
2016-06-16T02:10:06.250Z,0
2016-06-16T02:11:06.331Z,0
2016-06-16T02:12:06.271Z,0
2016-06-16T02:13:06.212Z,0
2016-06-16T02:14:06.246Z,0
2016-06-16T02:15:06.186Z,0
2016-06-16T02:16:06.159Z,0
2016-06-16T02:17:06.146Z,0
2016-06-16T02:18:06.133Z,0
2016-06-16T02:19:06.106Z,0
2016-06-16T02:20:06.093Z,0
2016-06-16T02:21:06.095Z,0
2016-06-16T02:22:06.068Z,0
2016-06-16T02:23:06.055Z,0
2016-06-16T02:24:06.152Z,0
2016-06-16T02:25:05.874Z,0
2016-06-16T02:26:06.439Z,0
2016-06-16T02:27:06.020Z,0
2016-06-16T02:28:05.977Z,0
2016-06-16T02:29:05.948Z,0
2016-06-16T02:30:05.967Z,0
2016-06-16T02:31:05.954Z,0
2016-06-16T02:32:05.864Z,0
2016-06-16T02:33:05.913Z,0
2016-06-16T02:34:05.933Z,0
2016-06-16T02:35:05.873Z,0
2016-06-16T02:36:05.892Z,0
2016-06-16T02:37:05.864Z,0
2016-06-16T02:38:05.836Z,0
2016-06-16T02:39:05.823Z,0
2016-06-16T02:40:05.826Z,0
2016-06-16T02:41:05.923Z,0
2016-06-16T02:42:05.801Z,0
2016-06-16T02:43:05.772Z,0
2016-06-16T02:44:05.761Z,0
2016-06-16T02:45:05.764Z,0
2016-06-16T02:46:05.719Z,0
2016-06-16T02:47:05.706Z,0
2016-06-16T02:48:05.695Z,0
2016-06-16T02:49:05.666Z,0
2016-06-16T02:50:05.668Z,0
2016-06-16T02:51:05.501Z,0
2016-06-16T02:52:05.644Z,0
2016-06-16T02:53:05.491Z,0
2016-06-16T02:54:05.635Z,0
2016-06-16T02:55:05.592Z,0
2016-06-16T02:56:06.156Z,0
2016-06-16T02:57:05.409Z,0
2016-06-16T02:58:05.538Z,0
2016-06-16T02:59:05.526Z,0
2016-06-16T03:00:05.529Z,0
2016-06-16T03:01:05.500Z,0
2016-06-16T03:02:05.519Z,0
2016-06-16T03:03:05.475Z,0
2016-06-16T03:04:05.306Z,0
2016-06-16T03:05:05.294Z,0
2016-06-16T03:06:05.453Z,0
2016-06-16T03:07:05.426Z,0
2016-06-16T03:08:05.396Z,0
2016-06-16T03:09:05.399Z,0
2016-06-16T03:10:05.371Z,0
2016-06-16T03:11:05.375Z,0
2016-06-16T03:12:05.769Z,0
2016-06-16T03:13:05.333Z,0
2016-06-16T03:14:05.289Z,0
2016-06-16T03:15:05.293Z,0
2016-06-16T03:16:05.265Z,0
2016-06-16T03:17:05.268Z,0
2016-06-16T03:18:05.240Z,0
2016-06-16T03:19:05.243Z,0
2016-06-16T03:20:05.261Z,0
2016-06-16T03:21:05.233Z,0
2016-06-16T03:22:05.205Z,0
2016-06-16T03:23:05.177Z,0
2016-06-16T03:24:05.165Z,0
2016-06-16T03:25:05.136Z,0
2016-06-16T03:26:05.139Z,0
2016-06-16T03:27:05.065Z,0
2016-06-16T03:28:05.115Z,0
2016-06-16T03:29:05.085Z,0
2016-06-16T03:30:05.089Z,0
2016-06-16T03:31:05.077Z,0
2016-06-16T03:32:05.048Z,0
2016-06-16T03:33:05.036Z,0
2016-06-16T03:34:05.039Z,0
2016-06-16T03:35:04.995Z,0
2016-06-16T03:36:04.999Z,0
2016-06-16T03:37:04.985Z,5
2016-06-16T03:38:04.973Z,5
2016-06-16T03:39:05.023Z,5
2016-06-16T03:40:04.916Z,5
2016-06-16T03:41:04.905Z,5
2016-06-16T03:42:05.282Z,5
2016-06-16T03:43:04.785Z,5
2016-06-16T03:44:04.851Z,5
2016-06-16T03:45:04.900Z,5
2016-06-16T03:46:04.826Z,5
2016-06-16T03:47:04.813Z,5
2016-06-16T03:48:04.801Z,5
2016-06-16T03:49:04.819Z,5
2016-06-16T03:50:04.792Z,5
2016-06-16T03:51:04.794Z,5
2016-06-16T03:52:04.734Z,5
2016-06-16T03:53:04.753Z,10
2016-06-16T03:54:04.726Z,5
2016-06-16T03:55:04.759Z,5
2016-06-16T03:56:04.685Z,10
2016-06-16T03:57:04.357Z,10
2016-06-16T03:58:04.660Z,10
2016-06-16T03:59:04.710Z,10
2016-06-16T04:00:04.650Z,10
2016-06-16T04:01:04.637Z,10
2016-06-16T04:02:04.591Z,10
2016-06-16T04:03:04.422Z,10
2016-06-16T04:04:04.582Z,10
2016-06-16T04:05:04.584Z,10
2016-06-16T04:06:04.556Z,10
2016-06-16T04:07:04.527Z,15
2016-06-16T04:08:04.500Z,10
2016-06-16T04:09:04.487Z,10
2016-06-16T04:10:04.474Z,15
2016-06-16T04:11:04.587Z,15
2016-06-16T04:12:05.062Z,15
2016-06-16T04:13:04.437Z,15
2016-06-16T04:14:04.423Z,15
2016-06-16T04:15:04.459Z,20
2016-06-16T04:16:04.399Z,20
2016-06-16T04:17:04.390Z,20
2016-06-16T04:18:04.277Z,20
2016-06-16T04:19:04.444Z,20
2016-06-16T04:20:04.487Z,25
2016-06-16T04:21:04.498Z,30
2016-06-16T04:22:04.499Z,25
2016-06-16T04:23:04.516Z,25
2016-06-16T04:24:04.361Z,30
2016-06-16T04:25:04.520Z,30
2016-06-16T04:26:04.506Z,30
2016-06-16T04:27:04.941Z,30
2016-06-16T04:28:04.495Z,30
2016-06-16T04:29:04.488Z,30
2016-06-16T04:30:04.480Z,30
2016-06-16T04:31:04.488Z,30
2016-06-16T04:32:04.448Z,30
2016-06-16T04:33:04.610Z,35
2016-06-16T04:34:04.615Z,35
2016-06-16T04:35:04.432Z,40
2016-06-16T04:36:04.389Z,40
2016-06-16T04:37:04.410Z,45
2016-06-16T04:38:04.211Z,45
2016-06-16T04:39:04.433Z,50
2016-06-16T04:40:04.344Z,50
2016-06-16T04:41:04.395Z,50
2016-06-16T04:42:05.335Z,50
2016-06-16T04:43:04.323Z,55
2016-06-16T04:44:04.295Z,50
2016-06-16T04:45:04.284Z,55
2016-06-16T04:46:04.099Z,50
2016-06-16T04:47:04.274Z,55
2016-06-16T04:48:04.089Z,55
2016-06-16T04:49:04.250Z,55
2016-06-16T04:50:04.220Z,55
2016-06-16T04:51:04.209Z,55
2016-06-16T04:52:04.181Z,60
2016-06-16T04:53:04.168Z,60
2016-06-16T04:54:04.155Z,60
2016-06-16T04:55:04.158Z,65
2016-06-16T04:56:04.099Z,65
2016-06-16T04:57:04.321Z,70
2016-06-16T04:58:04.106Z,70
2016-06-16T04:59:04.077Z,70
2016-06-16T05:00:04.080Z,70
2016-06-16T05:01:04.051Z,70
2016-06-16T05:02:04.039Z,75
2016-06-16T05:03:04.026Z,75
2016-06-16T05:04:04.014Z,75
2016-06-16T05:05:03.971Z,75
2016-06-16T05:06:03.973Z,75
2016-06-16T05:07:03.961Z,80
2016-06-16T05:08:03.948Z,80
2016-06-16T05:09:03.951Z,80
2016-06-16T05:10:03.767Z,75
2016-06-16T05:11:03.567Z,75
2016-06-16T05:12:04.351Z,70
2016-06-16T05:13:03.871Z,65
2016-06-16T05:14:03.889Z,65
2016-06-16T05:15:03.705Z,60
2016-06-16T05:16:03.833Z,60
2016-06-16T05:17:03.819Z,65
2016-06-16T05:18:03.807Z,65
2016-06-16T05:19:03.810Z,75
2016-06-16T05:20:03.813Z,80
2016-06-16T05:21:03.754Z,80
2016-06-16T05:22:03.726Z,80
2016-06-16T05:23:03.744Z,85
2016-06-16T05:24:03.732Z,85
2016-06-16T05:25:03.703Z,85
2016-06-16T05:26:03.691Z,85
2016-06-16T05:27:04.523Z,85
2016-06-16T05:28:03.651Z,85
2016-06-16T05:29:03.654Z,85
2016-06-16T05:30:03.656Z,85
2016-06-16T05:31:03.628Z,85
2016-06-16T05:32:03.632Z,85
2016-06-16T05:33:04.244Z,85
2016-06-16T05:34:03.591Z,90
2016-06-16T05:35:03.563Z,90
2016-06-16T05:36:03.566Z,90
2016-06-16T05:37:03.537Z,95
2016-06-16T05:38:03.540Z,95
2016-06-16T05:39:03.512Z,95
2016-06-16T05:40:03.499Z,95
2016-06-16T05:41:03.471Z,100
2016-06-16T05:42:03.599Z,100
2016-06-16T05:43:03.478Z,100
2016-06-16T05:44:03.466Z,100
2016-06-16T05:45:03.437Z,95
2016-06-16T05:46:03.409Z,95
2016-06-16T05:47:03.256Z,95
2016-06-16T05:48:03.273Z,100
2016-06-16T05:49:03.371Z,95
2016-06-16T05:50:03.405Z,95
2016-06-16T05:51:03.330Z,95
2016-06-16T05:52:03.380Z,100
2016-06-16T05:53:03.321Z,105
2016-06-16T05:54:03.355Z,105
2016-06-16T05:55:03.296Z,105
2016-06-16T05:56:03.284Z,110
2016-06-16T05:57:04.006Z,115
2016-06-16T05:58:03.259Z,110
2016-06-16T05:59:03.246Z,110
2016-06-16T06:00:03.248Z,110
2016-06-16T06:01:03.220Z,115
2016-06-16T06:02:03.208Z,115
2016-06-16T06:03:03.211Z,115
2016-06-16T06:04:03.230Z,115
2016-06-16T06:05:03.155Z,115
2016-06-16T06:06:03.142Z,120
2016-06-16T06:07:03.129Z,115
2016-06-16T06:08:03.133Z,115
2016-06-16T06:09:02.949Z,110
2016-06-16T06:10:03.077Z,110
2016-06-16T06:11:03.080Z,105
2016-06-16T06:12:03.083Z,105
2016-06-16T06:13:03.054Z,110
2016-06-16T06:14:03.057Z,110
2016-06-16T06:15:03.029Z,115
2016-06-16T06:16:03.017Z,115
2016-06-16T06:17:03.004Z,115
2016-06-16T06:18:02.991Z,115
2016-06-16T06:19:02.963Z,120
2016-06-16T06:20:02.952Z,125
2016-06-16T06:21:02.922Z,125
2016-06-16T06:22:02.958Z,125
2016-06-16T06:23:02.928Z,120
2016-06-16T06:24:02.901Z,120
2016-06-16T06:25:02.887Z,125
2016-06-16T06:26:02.876Z,125
2016-06-16T06:27:03.301Z,120
2016-06-16T06:28:02.851Z,120
2016-06-16T06:29:02.682Z,125
2016-06-16T06:30:02.825Z,125
2016-06-16T06:31:02.813Z,125
2016-06-16T06:32:02.800Z,125
2016-06-16T06:33:02.787Z,130
2016-06-16T06:34:02.775Z,130
2016-06-16T06:35:02.779Z,130
2016-06-16T06:36:02.766Z,135
2016-06-16T06:37:02.738Z,135
2016-06-16T06:38:02.756Z,140
2016-06-16T06:39:02.727Z,140
2016-06-16T06:40:02.716Z,145
2016-06-16T06:41:02.672Z,145
2016-06-16T06:42:02.769Z,145
2016-06-16T06:43:02.662Z,150
2016-06-16T06:44:02.665Z,150
2016-06-16T06:45:02.481Z,150
2016-06-16T06:46:02.640Z,155
2016-06-16T06:47:02.643Z,155
2016-06-16T06:48:02.599Z,150
2016-06-16T06:49:02.431Z,155
2016-06-16T06:50:02.481Z,160
2016-06-16T06:51:02.578Z,160
2016-06-16T06:52:02.564Z,160
2016-06-16T06:53:02.537Z,165
2016-06-16T06:54:02.555Z,165
2016-06-16T06:55:02.512Z,165
2016-06-16T06:56:02.515Z,165
2016-06-16T06:57:02.174Z,165
2016-06-16T06:58:02.333Z,165
2016-06-16T06:59:02.492Z,165
2016-06-16T07:00:02.449Z,170
2016-06-16T07:01:02.467Z,170
2016-06-16T07:02:02.455Z,170
2016-06-16T07:03:02.505Z,170
2016-06-16T07:04:02.118Z,170
2016-06-16T07:05:02.432Z,170
2016-06-16T07:06:02.232Z,170
2016-06-16T07:07:02.392Z,175
2016-06-16T07:08:02.349Z,180
2016-06-16T07:09:02.352Z,175
2016-06-16T07:10:02.198Z,170
2016-06-16T07:11:02.342Z,185
2016-06-16T07:12:02.251Z,170
2016-06-16T07:13:02.348Z,165
2016-06-16T07:14:02.320Z,180
2016-06-16T07:15:02.135Z,185
2016-06-16T07:16:02.280Z,185
2016-06-16T07:17:02.252Z,175
2016-06-16T07:18:02.255Z,175
2016-06-16T07:19:02.225Z,135
2016-06-16T07:20:02.057Z,185
2016-06-16T07:21:02.201Z,195
2016-06-16T07:22:02.063Z,195
2016-06-16T07:23:02.207Z,200
2016-06-16T07:24:02.163Z,205
2016-06-16T07:25:02.152Z,195
2016-06-16T07:26:01.997Z,180
2016-06-16T07:27:02.266Z,205
2016-06-16T07:28:01.956Z,210
2016-06-16T07:29:02.116Z,220
2016-06-16T07:30:02.120Z,215
2016-06-16T07:31:01.965Z,215
2016-06-16T07:32:02.093Z,185
2016-06-16T07:33:02.128Z,175
2016-06-16T07:34:01.866Z,190
2016-06-16T07:48:37.693Z,235
2016-06-16T07:48:46.943Z,245
2016-06-16T07:48:59.490Z,250
2016-06-16T07:49:59.477Z,255
2016-06-16T07:50:59.496Z,265
2016-06-16T07:51:59.530Z,260
2016-06-16T07:52:59.455Z,255
2016-06-16T07:53:59.301Z,255
2016-06-16T07:54:59.102Z,265
2016-06-16T07:55:59.293Z,260
2016-06-16T07:56:59.124Z,270
2016-06-16T07:57:59.407Z,270
2016-06-16T07:58:59.473Z,245
2016-06-16T07:59:59.383Z,245
2016-06-16T08:00:59.308Z,285
2016-06-16T08:01:59.201Z,305
2016-06-16T08:02:59.220Z,295
2016-06-16T08:03:59.332Z,270
2016-06-16T08:04:59.429Z,250
2016-06-16T08:05:59.323Z,255
2016-06-16T08:06:59.342Z,230
2016-06-16T08:07:59.299Z,220
2016-06-16T08:08:59.302Z,250
2016-06-16T08:09:59.117Z,220
2016-06-16T08:10:59.495Z,230
2016-06-16T08:11:59.106Z,215
2016-06-16T08:12:59.298Z,220
2016-06-16T08:13:59.238Z,235
2016-06-16T08:14:59.240Z,230
2016-06-16T08:15:59.213Z,235
2016-06-16T08:16:59.201Z,275
2016-06-16T08:17:59.204Z,285
2016-06-16T08:18:59.176Z,295
2016-06-16T08:19:59.194Z,295
2016-06-16T08:20:59.041Z,280
2016-06-16T08:21:59.185Z,315
2016-06-16T08:22:59.000Z,295
2016-06-16T08:23:59.144Z,270
2016-06-16T08:24:59.146Z,250
2016-06-16T08:25:58.993Z,260
2016-06-16T08:26:59.027Z,310
2016-06-16T08:27:59.125Z,315
2016-06-16T08:28:59.097Z,315
2016-06-16T08:29:58.944Z,285
2016-06-16T08:30:59.087Z,240
2016-06-16T08:31:58.934Z,215
2016-06-16T08:32:59.046Z,210
2016-06-16T08:33:58.737Z,270
2016-06-16T08:34:59.053Z,255
2016-06-16T08:35:59.041Z,280
2016-06-16T08:36:59.044Z,310
2016-06-16T08:37:58.874Z,345
2016-06-16T08:38:58.862Z,330
2016-06-16T08:39:58.850Z,255
2016-06-16T08:40:58.837Z,220
2016-06-16T08:41:58.996Z,190
2016-06-16T08:42:58.985Z,175
2016-06-16T08:43:58.956Z,180
2016-06-16T08:44:58.803Z,175
2016-06-16T08:45:58.837Z,170
2016-06-16T08:46:58.950Z,165
2016-06-16T08:48:22.596Z,225
2016-06-16T08:48:35.143Z,230
2016-06-16T08:49:35.146Z,220
2016-06-16T08:50:35.135Z,240
2016-06-16T08:51:35.152Z,285
2016-06-16T08:52:34.952Z,195
2016-06-16T08:53:35.112Z,210
2016-06-16T08:54:35.131Z,195
2016-06-16T08:55:34.931Z,210
2016-06-16T08:56:34.902Z,225
2016-06-16T08:57:35.046Z,280
2016-06-16T08:58:34.876Z,340
2016-06-16T08:59:34.880Z,365
2016-06-16T09:00:35.040Z,360
2016-06-16T09:01:34.933Z,350
2016-06-16T09:02:34.858Z,355
2016-06-16T09:03:34.752Z,340
2016-06-16T09:04:34.849Z,345
2016-06-16T09:05:34.884Z,310
2016-06-16T09:06:34.823Z,345
2016-06-16T09:07:34.983Z,365
2016-06-16T09:08:34.970Z,375
2016-06-16T09:09:34.958Z,335
2016-06-16T09:10:34.961Z,280
2016-06-16T09:11:34.964Z,265
2016-06-16T09:12:34.607Z,285
2016-06-16T09:13:34.767Z,340
2016-06-16T09:14:34.911Z,360
2016-06-16T09:15:34.945Z,405
2016-06-16T09:16:34.917Z,355
2016-06-16T09:17:34.951Z,365
2016-06-16T09:18:34.735Z,305
2016-06-16T09:19:34.896Z,320
2016-06-16T09:20:34.882Z,265
2016-06-16T09:21:34.870Z,255
2016-06-16T09:22:34.857Z,250
2016-06-16T09:23:34.860Z,245
2016-06-16T09:24:34.848Z,255
2016-06-16T09:25:34.960Z,285
2016-06-16T09:26:34.823Z,230
2016-06-16T09:27:34.826Z,220
2016-06-16T09:28:34.829Z,225
2016-06-16T09:29:34.801Z,240
2016-06-16T09:30:34.507Z,275
2016-06-16T09:31:34.807Z,285
2016-06-16T09:32:34.685Z,325
2016-06-16T09:33:34.767Z,240
2016-06-16T09:34:34.831Z,260
2016-06-16T09:35:34.804Z,240
2016-06-16T09:36:34.776Z,265
2016-06-16T09:37:34.779Z,415
2016-06-16T09:38:34.828Z,430
2016-06-16T09:39:34.738Z,420
2016-06-16T09:40:34.428Z,440
2016-06-16T09:41:34.588Z,465
2016-06-16T09:42:34.747Z,505
2016-06-16T09:43:34.719Z,555
2016-06-16T09:44:34.722Z,620
2016-06-16T09:45:34.834Z,655
2016-06-16T09:46:34.713Z,475
2016-06-16T09:47:34.559Z,350
2016-06-16T09:48:34.702Z,635
2016-06-16T09:49:34.691Z,585
2016-06-16T09:50:34.677Z,860
2016-06-16T09:51:34.509Z,875
2016-06-16T09:52:34.528Z,875
2016-06-16T09:53:34.531Z,825
2016-06-16T09:54:34.580Z,795
2016-06-16T09:55:34.506Z,745
2016-06-16T09:56:34.680Z,635
2016-06-16T09:57:34.527Z,540
2016-06-16T09:58:34.358Z,605
2016-06-16T09:59:34.674Z,520
2016-06-16T10:00:34.677Z,735
2016-06-16T10:01:34.492Z,640
2016-06-16T10:02:34.543Z,215
2016-06-16T10:03:35.156Z,220
2016-06-16T10:04:34.502Z,275
2016-06-16T10:05:35.271Z,540
2016-06-16T10:06:35.071Z,310
2016-06-16T10:07:34.932Z,645
2016-06-16T10:08:35.639Z,605
2016-06-16T10:09:35.767Z,650
2016-06-16T10:10:34.614Z,580
2016-06-16T10:11:34.445Z,510
2016-06-16T10:12:34.448Z,475
2016-06-16T10:13:34.576Z,455
2016-06-16T10:14:34.596Z,400
2016-06-16T10:15:34.599Z,380
2016-06-16T10:16:34.585Z,350
2016-06-16T10:17:34.495Z,395
2016-06-16T10:18:34.404Z,420
2016-06-16T10:19:34.611Z,435
2016-06-16T10:20:34.536Z,495
2016-06-16T10:21:34.539Z,525
2016-06-16T10:22:34.557Z,485
2016-06-16T10:23:34.545Z,505
2016-06-16T10:24:34.360Z,495
2016-06-16T10:25:34.519Z,260
2016-06-16T10:26:34.522Z,580
2016-06-16T10:27:34.526Z,225
2016-06-16T10:28:34.513Z,215
2016-06-16T10:29:34.517Z,435
2016-06-16T10:30:34.332Z,195
2016-06-16T10:31:34.476Z,260
2016-06-16T10:32:34.463Z,395
2016-06-16T10:33:34.466Z,215
2016-06-16T10:34:34.437Z,210
2016-06-16T10:35:34.019Z,205
2016-06-16T10:36:34.444Z,225
2016-06-16T10:37:34.306Z,215
2016-06-16T10:38:34.403Z,210
2016-06-16T10:39:34.125Z,230
2016-06-16T10:40:34.410Z,285
2016-06-16T10:41:34.272Z,315
2016-06-16T10:42:34.259Z,250
2016-06-16T10:43:34.090Z,255
2016-06-16T10:44:34.235Z,255
2016-06-16T10:45:34.253Z,255
2016-06-16T10:46:34.397Z,365
2016-06-16T10:47:34.369Z,375
2016-06-16T10:48:34.200Z,390
2016-06-16T10:49:34.359Z,385
2016-06-16T10:50:34.300Z,370
2016-06-16T10:51:34.349Z,385
2016-06-16T10:52:34.337Z,365
2016-06-16T10:53:34.355Z,360
2016-06-16T10:54:34.234Z,305
2016-06-16T10:55:34.018Z,320
2016-06-16T10:56:34.319Z,300
2016-06-16T10:57:34.290Z,185
2016-06-16T10:58:34.387Z,190
2016-06-16T10:59:34.295Z,175
2016-06-16T11:00:34.284Z,175
2016-06-16T11:01:34.287Z,170
2016-06-16T11:02:34.587Z,170
2016-06-16T11:03:34.262Z,160
2016-06-16T11:04:34.311Z,155
2016-06-16T11:07:55.602Z,140
2016-06-16T11:09:39.968Z,145
2016-06-16T11:09:55.905Z,150
2016-06-16T11:10:55.674Z,145
2016-06-16T11:11:55.771Z,155
2016-06-16T11:13:39.933Z,145
2016-06-16T11:13:55.949Z,150
2016-06-16T11:14:55.905Z,150
2016-06-16T11:15:55.689Z,155
2016-06-16T11:16:55.677Z,160
2016-06-16T11:17:55.664Z,165
2016-06-16T11:18:55.651Z,190
2016-06-16T11:19:55.717Z,240
2016-06-16T11:20:55.830Z,190
2016-06-16T11:21:55.802Z,205
2016-06-16T11:22:55.805Z,260
2016-06-16T11:23:55.824Z,205
2016-06-16T11:24:55.467Z,210
2016-06-16T11:25:55.783Z,285
2016-06-16T11:26:55.754Z,255
2016-06-16T11:27:55.773Z,295
2016-06-16T11:28:55.761Z,245
2016-06-16T11:29:55.764Z,210
2016-06-16T11:30:55.595Z,195
2016-06-16T11:31:55.582Z,210
2016-06-16T11:32:55.726Z,230
2016-06-16T11:33:55.620Z,235
2016-06-16T11:34:55.685Z,270
2016-06-16T11:35:55.720Z,295
2016-06-16T11:36:55.707Z,310
2016-06-16T11:37:55.538Z,340
2016-06-16T11:38:55.369Z,335
2016-06-16T11:39:55.654Z,335
2016-06-16T11:40:55.673Z,335
2016-06-16T11:41:55.660Z,335
2016-06-16T11:42:55.647Z,310
2016-06-16T11:43:55.650Z,305
2016-06-16T11:44:55.716Z,350
2016-06-16T11:45:55.625Z,350
2016-06-16T11:46:55.332Z,350
2016-06-16T11:47:55.600Z,340
2016-06-16T11:48:55.478Z,330
2016-06-16T11:49:55.449Z,335
2016-06-16T11:50:55.609Z,325
2016-06-16T11:51:55.613Z,240
2016-06-16T11:52:55.444Z,235
2016-06-16T11:53:55.603Z,230
2016-06-16T11:54:55.575Z,235
2016-06-16T11:55:55.406Z,355
2016-06-16T11:56:55.081Z,330
2016-06-16T11:57:55.553Z,245
2016-06-16T11:58:55.557Z,265
2016-06-16T11:59:55.372Z,335
2016-06-16T12:00:55.530Z,320
2016-06-16T12:01:55.503Z,370
2016-06-16T12:02:55.506Z,370
2016-06-16T12:03:55.508Z,250
2016-06-16T12:04:55.512Z,235
2016-06-16T12:05:55.343Z,210
2016-06-16T12:06:55.502Z,200
2016-06-16T12:07:55.021Z,185
2016-06-16T12:08:55.508Z,175
2016-06-16T12:09:55.324Z,175
2016-06-16T12:10:55.327Z,190
2016-06-16T12:11:55.455Z,190
2016-06-16T12:12:55.442Z,190
2016-06-16T12:13:55.445Z,195
2016-06-16T12:14:55.418Z,195
2016-06-16T12:15:55.280Z,205
2016-06-16T12:16:55.439Z,215
2016-06-16T12:17:55.458Z,215
2016-06-16T12:18:55.414Z,215
2016-06-16T12:19:55.386Z,220
2016-06-16T12:20:55.311Z,220
2016-06-16T12:21:55.236Z,230
2016-06-16T12:22:55.255Z,230
2016-06-16T12:23:55.211Z,265
2016-06-16T12:24:55.199Z,265
2016-06-16T12:25:55.232Z,265
2016-06-16T12:26:55.360Z,270
2016-06-16T12:27:55.379Z,265
2016-06-16T12:28:55.180Z,260
2016-06-16T12:29:55.214Z,265
2016-06-16T12:30:55.170Z,265
2016-06-16T12:31:55.173Z,255
2016-06-16T12:32:55.176Z,270
2016-06-16T12:33:55.335Z,265
2016-06-16T12:34:55.323Z,260
2016-06-16T12:35:55.326Z,240
2016-06-16T12:36:55.313Z,210
2016-06-16T12:37:55.286Z,205
2016-06-16T12:38:55.133Z,200
2016-06-16T12:39:54.978Z,195
2016-06-16T12:40:55.279Z,195
2016-06-16T12:41:55.109Z,205
2016-06-16T12:42:55.253Z,195
2016-06-16T12:43:55.351Z,190
2016-06-16T12:44:55.243Z,195
2016-06-16T12:45:55.122Z,195
2016-06-16T12:46:54.922Z,190
2016-06-16T12:47:55.222Z,190
2016-06-16T12:48:55.210Z,190
2016-06-16T12:49:55.244Z,190
2016-06-16T12:50:55.216Z,185
2016-06-16T12:51:55.032Z,180
2016-06-16T12:52:55.223Z,180
2016-06-16T12:58:49.537Z,175
2016-06-16T12:59:01.928Z,180
2016-06-16T13:00:01.978Z,180
2016-06-16T13:01:01.965Z,180
2016-06-16T13:02:01.797Z,180
2016-06-16T13:03:02.128Z,180
2016-06-16T13:04:02.147Z,180
2016-06-16T13:05:02.072Z,175
2016-06-16T13:06:02.090Z,170
2016-06-16T13:07:02.187Z,170
2016-06-16T13:08:01.987Z,175
2016-06-16T13:09:02.396Z,170
2016-06-16T13:10:02.024Z,170
2016-06-16T13:11:01.700Z,165
2016-06-16T13:12:02.250Z,160
2016-06-16T13:13:02.488Z,155
2016-06-16T13:14:01.694Z,155
2016-06-16T13:15:02.009Z,155
2016-06-16T13:16:01.997Z,175
2016-06-16T13:17:03.484Z,205
2016-06-16T13:18:01.971Z,175
2016-06-16T13:19:02.349Z,175
2016-06-16T13:20:02.196Z,170
2016-06-16T13:21:02.199Z,170
2016-06-16T13:22:02.311Z,170
2016-06-16T13:23:02.033Z,175
2016-06-16T13:24:01.709Z,185
2016-06-16T13:25:01.774Z,195
2016-06-16T13:26:02.731Z,205
2016-06-16T13:27:02.139Z,200
2016-06-16T13:28:01.752Z,195
2016-06-16T13:29:02.068Z,190
2016-06-16T13:30:01.977Z,190
2016-06-16T13:31:01.713Z,190
2016-06-16T13:32:02.124Z,195
2016-06-16T13:33:02.314Z,240
2016-06-16T13:34:01.848Z,245
2016-06-16T13:35:01.711Z,255
2016-06-16T13:36:01.948Z,255
2016-06-16T13:37:01.904Z,220
2016-06-16T13:38:02.017Z,210
2016-06-16T13:39:01.770Z,220
2016-06-16T13:40:01.867Z,200
2016-06-16T13:41:02.464Z,205
2016-06-16T13:42:01.889Z,190
2016-06-16T13:43:01.814Z,215
2016-06-16T13:44:01.754Z,215
2016-06-16T13:45:01.757Z,230
2016-06-16T13:46:01.448Z,220
2016-06-16T13:47:01.405Z,215
2016-06-16T13:48:01.454Z,215
2016-06-16T13:49:01.723Z,210
2016-06-16T13:50:01.804Z,205
2016-06-16T13:51:01.682Z,185
2016-06-16T13:52:01.529Z,160
2016-06-16T13:53:01.548Z,160
2016-06-16T13:58:45.279Z,185
2016-06-16T13:59:45.251Z,170
2016-06-16T14:00:45.144Z,180
2016-06-16T14:01:45.086Z,225
2016-06-16T14:02:45.089Z,200
2016-06-16T14:03:45.217Z,210
2016-06-16T14:04:45.235Z,235
2016-06-16T14:05:45.238Z,235
2016-06-16T14:06:45.242Z,245
2016-06-16T14:07:44.869Z,250
2016-06-16T14:08:45.045Z,255
2016-06-16T14:09:45.032Z,255
2016-06-16T14:10:45.192Z,275
2016-06-16T14:11:45.022Z,285
2016-06-16T14:12:45.182Z,290
2016-06-16T14:13:45.154Z,295
2016-06-16T14:14:45.187Z,290
2016-06-16T14:15:45.160Z,285
2016-06-16T14:16:44.976Z,285
2016-06-16T14:17:44.964Z,280
2016-06-16T14:18:45.139Z,275
2016-06-16T14:19:45.439Z,275
2016-06-16T14:20:44.943Z,265
2016-06-16T14:21:45.164Z,270
2016-06-16T14:22:45.121Z,270
2016-06-16T14:23:45.108Z,265
2016-06-16T14:24:44.923Z,265
2016-06-16T14:25:44.927Z,260
2016-06-16T14:26:45.085Z,240
2016-06-16T14:27:45.074Z,250
2016-06-16T14:28:45.060Z,245